Time;durP1;ratioP1;P1;durP2;ratioP2;P2;SDS_P1;SDS_P2;PMS_P1;PMS_P2;Temp;Humidity;BMP_temperature;BMP_pressure;BME280_temperature;BME280_humidity;BME280_pressure;Samples;Min_cycle;Max_cycle;Signal;HPM_P1;HPM_P2
2024/03/04 00:00:05;;;;;;;;;;;;;;;1.73;78.77;94357.59;4963305;28;19993;-62
2024/03/04 00:02:31;;;;;;;;;;;;;;;1.61;79.25;94349.97;4964515;28;20020;-62
2024/03/04 00:04:56;;;;;;;;;;;;;;;2.07;76.41;94348.97;4963328;28;20684;-62
2024/03/04 00:07:24;;;;;;;;;;;;;;;1.91;77.27;94362.84;4963813;28;20036;-62
2024/03/04 00:09:50;;;;;;;;;;;;;;;1.52;79.97;94363.16;4962911;28;19926;-61
2024/03/04 00:12:15;;;;;;;;;;;;;;;1.65;79.67;94362.81;4963621;28;19933;-62
2024/03/04 00:14:40;;;;;;;;;;;;;;;1.76;78.92;94362.56;4963335;28;19969;-62
2024/03/04 00:17:06;;;;;;;;;;;;;;;1.86;79.12;94370.31;4959071;28;19926;-61
2024/03/04 00:19:32;;;;;;;;;;;;;;;1.33;81.45;94362.38;4960156;28;19926;-62
2024/03/04 00:21:57;;;;;;;;;;;;;;;1.45;82.27;94378.69;4960394;28;19930;-62
2024/03/04 00:24:22;;;;;;;;;;;;;;;1.74;81.07;94367.94;4959539;28;19929;-63
2024/03/04 00:26:47;;;;;;;;;;;;;;;1.76;80.41;94375.69;4959355;28;19922;-63
2024/03/04 00:29:13;;;;;;;;;;;;;;;1.44;82.44;94372.63;4957279;28;19993;-63
2024/03/04 00:31:39;;;;;;;;;;;;;;;1.40;83.19;94373.88;4958887;28;19980;-63
2024/03/04 00:34:04;;;;;;;;;;;;;;;1.88;80.93;94373.63;4959264;28;20024;-63
2024/03/04 00:36:29;;;;;;;;;;;;;;;1.65;81.46;94379.38;4959035;28;20626;-63
2024/03/04 00:38:54;;;;;;;;;;;;;;;1.54;82.86;94372.59;4959679;28;20297;-63
2024/03/04 00:41:23;;;;;;;;;;;;;;;1.67;82.71;94379.22;4958704;28;20379;-63
2024/03/04 00:43:48;;;;;;;;;;;;;;;1.83;81.38;94384.59;4958766;28;20355;-63
2024/03/04 00:46:14;;;;;;;;;;;;;;;2.00;81.70;94385.53;4959027;28;19988;-63
2024/03/04 00:48:39;;;;;;;;;;;;;;;2.36;79.79;94383.75;4958304;28;20588;-63
2024/03/04 00:51:04;;;;;;;;;;;;;;;2.57;78.01;94393.84;4958578;28;19960;-63
2024/03/04 00:53:29;;;;;;;;;;;;;;;2.27;78.93;94398.63;4958847;28;19961;-63
2024/03/04 00:55:55;;;;;;;;;;;;;;;2.28;78.44;94402.91;4958686;28;19926;-64
2024/03/04 00:58:20;;;;;;;;;;;;;;;2.31;79.15;94413.09;4958739;28;19926;-63
2024/03/04 01:00:45;;;;;;;;;;;;;;;2.33;79.22;94410.31;4959248;28;19930;-63
2024/03/04 01:03:10;;;;;;;;;;;;;;;1.79;81.49;94409.50;4958853;28;20454;-63
2024/03/04 01:05:36;;;;;;;;;;;;;;;1.43;84.81;94418.19;4958668;28;20646;-63
2024/03/04 01:08:02;;;;;;;;;;;;;;;1.61;83.96;94415.56;4957538;28;20021;-63
2024/03/04 01:10:27;;;;;;;;;;;;;;;2.35;79.80;94414.44;4958476;28;19956;-63
2024/03/04 01:12:52;;;;;;;;;;;;;;;2.41;79.20;94425.31;4958643;28;20522;-63
2024/03/04 01:15:17;;;;;;;;;;;;;;;2.44;78.71;94424.97;4958645;28;19965;-63
2024/03/04 01:17:44;;;;;;;;;;;;;;;1.78;80.82;94438.50;4957617;28;20372;-63
2024/03/04 01:20:13;;;;;;;;;;;;;;;1.70;83.00;94437.47;4952873;28;20328;-63
2024/03/04 01:22:39;;;;;;;;;;;;;;;1.33;83.72;94444.47;4955091;28;20283;-62
2024/03/04 01:25:04;;;;;;;;;;;;;;;0.93;86.86;94453.59;4958601;28;19960;-63
2024/03/04 01:27:30;;;;;;;;;;;;;;;1.48;85.53;94459.72;4952422;28;19989;-63
2024/03/04 01:29:55;;;;;;;;;;;;;;;1.86;84.07;94465.66;4959134;28;19925;-63
2024/03/04 01:32:21;;;;;;;;;;;;;;;1.67;83.68;94466.63;4959274;28;20343;-63
2024/03/04 01:34:46;;;;;;;;;;;;;;;1.86;83.63;94465.66;4952077;28;19929;-63
2024/03/04 01:37:12;;;;;;;;;;;;;;;1.97;83.17;94464.59;4952835;28;20533;-63
2024/03/04 01:39:37;;;;;;;;;;;;;;;1.94;82.52;94461.44;4951718;28;19929;-63
2024/03/04 01:42:02;;;;;;;;;;;;;;;2.03;82.28;94464.94;4957461;28;19980;-63
2024/03/04 01:44:32;;;;;;;;;;;;;;;1.51;83.16;94464.66;4957664;28;19926;-63
2024/03/04 01:46:58;;;;;;;;;;;;;;;1.53;84.22;94469.78;4952282;28;20359;-63
2024/03/04 01:49:23;;;;;;;;;;;;;;;1.32;85.18;94466.44;4957051;28;19937;-63
2024/03/04 01:51:48;;;;;;;;;;;;;;;1.22;84.69;94481.41;4948832;28;19926;-63
2024/03/04 01:54:13;;;;;;;;;;;;;;;1.11;86.35;94478.03;4950999;28;19918;-63
2024/03/04 01:56:40;;;;;;;;;;;;;;;1.00;87.14;94480.88;4953838;28;20447;-63
2024/03/04 01:59:05;;;;;;;;;;;;;;;1.03;87.28;94480.56;4956983;28;19926;-63
2024/03/04 02:01:31;;;;;;;;;;;;;;;1.13;86.33;94488.38;4954405;28;19973;-63
2024/03/04 02:03:56;;;;;;;;;;;;;;;0.88;87.95;94497.75;4956683;28;20583;-63
2024/03/04 02:06:22;;;;;;;;;;;;;;;1.38;85.96;94491.25;4954415;28;19965;-63
2024/03/04 02:08:48;;;;;;;;;;;;;;;1.97;82.55;94490.00;4968313;28;20673;-63
2024/03/04 02:11:13;;;;;;;;;;;;;;;1.31;84.70;94492.81;4958280;28;20469;-63
2024/03/04 02:13:38;;;;;;;;;;;;;;;0.73;88.40;94500.84;4957011;28;19918;-63
2024/03/04 02:16:04;;;;;;;;;;;;;;;0.68;88.70;94497.84;4957956;28;20573;-62
2024/03/04 02:18:30;;;;;;;;;;;;;;;0.54;89.74;94506.97;4958760;28;19926;-62
2024/03/04 02:20:57;;;;;;;;;;;;;;;0.39;90.27;94510.06;4972602;28;19933;-63
2024/03/04 02:23:23;;;;;;;;;;;;;;;0.18;92.20;94505.81;4956425;28;19949;-63
2024/03/04 02:25:52;;;;;;;;;;;;;;;-0.21;93.84;94506.69;4958409;28;19922;-62
2024/03/04 02:28:18;;;;;;;;;;;;;;;-0.25;95.51;94502.69;4945391;28;19926;-62
2024/03/04 02:30:43;;;;;;;;;;;;;;;-0.11;95.08;94514.53;4958553;28;19953;-63
2024/03/04 02:33:08;;;;;;;;;;;;;;;-0.03;94.25;94516.44;4956950;28;20018;-62
2024/03/04 02:35:33;;;;;;;;;;;;;;;0.10;94.21;94515.34;4957602;28;19973;-62
2024/03/04 02:38:00;;;;;;;;;;;;;;;0.21;93.20;94517.81;4958587;28;19922;-63
2024/03/04 02:40:25;;;;;;;;;;;;;;;0.21;93.00;94516.00;4956432;28;19930;-63
2024/03/04 02:42:51;;;;;;;;;;;;;;;0.73;89.61;94517.38;4958011;28;20453;-63
2024/03/04 02:45:16;;;;;;;;;;;;;;;0.92;88.27;94520.88;4957858;28;19960;-63
2024/03/04 02:47:41;;;;;;;;;;;;;;;1.36;85.86;94525.50;4957523;28;20760;-63
2024/03/04 02:50:07;;;;;;;;;;;;;;;1.17;86.27;94542.19;4962186;28;19960;-63
2024/03/04 02:52:33;;;;;;;;;;;;;;;1.03;86.32;94540.88;4957523;28;20021;-63
2024/03/04 02:54:58;;;;;;;;;;;;;;;0.77;88.10;94536.28;4957058;28;20379;-62
2024/03/04 02:57:24;;;;;;;;;;;;;;;0.77;87.27;94533.66;4958004;28;19926;-63
2024/03/04 02:59:49;;;;;;;;;;;;;;;0.53;88.71;94527.09;4957192;28;19929;-62
2024/03/04 03:02:15;;;;;;;;;;;;;;;0.64;87.96;94527.88;4958566;28;19922;-62
2024/03/04 03:04:41;;;;;;;;;;;;;;;-0.02;91.70;94538.22;4961133;28;19988;-62
2024/03/04 03:07:06;;;;;;;;;;;;;;;-0.58;95.40;94538.72;4957789;28;20020;-63
2024/03/04 03:09:31;;;;;;;;;;;;;;;-0.58;96.91;94550.00;4957629;28;19987;-62
2024/03/04 03:11:56;;;;;;;;;;;;;;;-0.73;97.64;94543.50;4957316;28;20391;-62
2024/03/04 03:14:22;;;;;;;;;;;;;;;-0.68;97.26;94549.16;4957574;28;20292;-62
2024/03/04 03:16:48;;;;;;;;;;;;;;;-1.07;100.00;94544.63;4961215;28;20019;-63
2024/03/04 03:19:20;;;;;;;;;;;;;;;-1.07;100.00;94542.00;4957270;28;20301;-62
2024/03/04 03:21:45;;;;;;;;;;;;;;;-0.88;100.00;94549.09;4957138;28;20517;-62
2024/03/04 03:24:10;;;;;;;;;;;;;;;-0.57;99.79;94545.63;4957429;28;19922;-62
2024/03/04 03:26:36;;;;;;;;;;;;;;;-0.86;100.00;94546.34;4957806;28;20718;-62
2024/03/04 03:29:01;;;;;;;;;;;;;;;-0.76;100.00;94547.22;4957285;28;20024;-63
2024/03/04 03:31:26;;;;;;;;;;;;;;;-0.87;100.00;94557.78;4957312;28;19926;-63
2024/03/04 03:33:51;;;;;;;;;;;;;;;-0.88;100.00;94561.38;4957459;28;19922;-62
2024/03/04 03:36:17;;;;;;;;;;;;;;;-0.90;100.00;94566.72;4957131;28;19931;-63
2024/03/04 03:38:42;;;;;;;;;;;;;;;-0.73;100.00;94565.25;4958056;28;19922;-63
2024/03/04 03:41:07;;;;;;;;;;;;;;;-0.61;99.50;94563.34;4957127;28;19940;-63
2024/03/04 03:43:33;;;;;;;;;;;;;;;-0.44;99.91;94568.88;4962821;28;20025;-63
2024/03/04 03:45:59;;;;;;;;;;;;;;;-0.38;98.13;94573.56;4957103;28;19969;-63
2024/03/04 03:48:25;;;;;;;;;;;;;;;-0.65;99.41;94580.25;4957131;28;20016;-62
2024/03/04 03:50:51;;;;;;;;;;;;;;;-0.34;98.73;94576.78;4957715;28;19922;-63
2024/03/04 03:53:16;;;;;;;;;;;;;;;-0.34;97.79;94577.56;4960640;28;19933;-62
2024/03/04 03:55:41;;;;;;;;;;;;;;;-0.06;96.51;94579.53;4960544;28;20134;-62
2024/03/04 03:58:09;;;;;;;;;;;;;;;0.11;94.98;94579.81;4963490;28;19929;-63
2024/03/04 04:00:36;;;;;;;;;;;;;;;-0.55;98.62;94588.13;4974325;28;20422;-62
2024/03/04 04:03:01;;;;;;;;;;;;;;;-0.48;98.43;94585.81;4959872;28;19926;-62
2024/03/04 04:05:26;;;;;;;;;;;;;;;-0.57;99.28;94584.84;4959209;28;19976;-62
2024/03/04 04:07:52;;;;;;;;;;;;;;;-0.41;99.51;94592.16;4960684;28;19996;-62
2024/03/04 04:10:17;;;;;;;;;;;;;;;-0.46;99.01;94589.97;4948796;28;19973;-62
2024/03/04 04:12:42;;;;;;;;;;;;;;;-0.36;98.21;94583.91;4967714;28;20415;-62
2024/03/04 04:15:08;;;;;;;;;;;;;;;-0.15;97.45;94580.34;4960300;28;20669;-62
2024/03/04 04:17:33;;;;;;;;;;;;;;;-0.39;98.69;94592.84;4952333;28;19969;-62
2024/03/04 04:19:58;;;;;;;;;;;;;;;-0.04;97.64;94590.69;4960031;28;19996;-62
2024/03/04 04:22:25;;;;;;;;;;;;;;;-0.13;96.04;94594.13;4960499;28;19929;-62
2024/03/04 04:24:50;;;;;;;;;;;;;;;-0.00;96.48;94599.09;4959992;28;19993;-62
2024/03/04 04:27:16;;;;;;;;;;;;;;;0.20;94.91;94598.13;4968283;28;20460;-62
2024/03/04 04:29:41;;;;;;;;;;;;;;;-0.02;95.72;94609.72;4961524;28;19976;-62
2024/03/04 04:32:06;;;;;;;;;;;;;;;0.05;95.94;94610.81;4960247;28;20331;-62
2024/03/04 04:34:32;;;;;;;;;;;;;;;0.37;93.62;94610.69;4960243;28;19922;-63
2024/03/04 04:36:58;;;;;;;;;;;;;;;-0.14;95.65;94616.84;4960509;28;20776;-63
2024/03/04 04:39:24;;;;;;;;;;;;;;;-0.04;96.40;94622.09;4959829;28;20482;-62
2024/03/04 04:41:49;;;;;;;;;;;;;;;-0.03;95.99;94620.31;4960401;28;19930;-62
2024/03/04 04:44:14;;;;;;;;;;;;;;;-0.11;96.07;94626.22;4959780;28;19977;-62
2024/03/04 04:46:39;;;;;;;;;;;;;;;-0.20;97.15;94623.44;4964020;28;19980;-62
2024/03/04 04:49:05;;;;;;;;;;;;;;;-0.23;96.87;94613.25;4969481;28;19950;-62
2024/03/04 04:51:30;;;;;;;;;;;;;;;0.07;95.70;94632.44;4960417;28;19930;-62
2024/03/04 04:53:55;;;;;;;;;;;;;;;0.27;93.74;94632.44;4959902;28;20032;-63
2024/03/04 04:56:21;;;;;;;;;;;;;;;0.22;93.83;94626.78;4959627;28;20048;-62
2024/03/04 04:58:47;;;;;;;;;;;;;;;0.44;93.50;94622.22;4959901;28;19966;-62
2024/03/04 05:01:12;;;;;;;;;;;;;;;0.59;91.77;94612.97;4958624;28;19927;-62
2024/03/04 05:03:37;;;;;;;;;;;;;;;0.14;93.44;94627.47;4973951;28;19968;-63
2024/03/04 05:06:02;;;;;;;;;;;;;;;0.14;94.19;94626.66;4959418;28;20028;-61
2024/03/04 05:08:28;;;;;;;;;;;;;;;0.48;93.07;94618.34;4959534;28;20525;-61
2024/03/04 05:10:53;;;;;;;;;;;;;;;0.51;92.70;94620.69;4959623;28;20108;-60
2024/03/04 05:13:18;;;;;;;;;;;;;;;0.58;91.85;94619.19;4959731;28;19981;-61
2024/03/04 05:15:44;;;;;;;;;;;;;;;0.65;91.18;94619.44;4958362;28;19930;-62
2024/03/04 05:18:09;;;;;;;;;;;;;;;0.59;91.40;94620.03;4959545;28;19922;-61
2024/03/04 05:20:35;;;;;;;;;;;;;;;0.78;90.26;94618.34;4959308;28;20256;-61
2024/03/04 05:23:00;;;;;;;;;;;;;;;1.20;88.55;94622.34;4974074;28;20334;-61
2024/03/04 05:25:26;;;;;;;;;;;;;;;0.64;89.26;94638.75;4959265;28;19928;-61
2024/03/04 05:27:51;;;;;;;;;;;;;;;0.27;92.41;94653.38;4959204;28;19965;-61
2024/03/04 05:30:16;;;;;;;;;;;;;;;0.07;93.19;94648.13;4959139;28;20323;-61
2024/03/04 05:32:43;;;;;;;;;;;;;;;0.14;93.84;94651.03;4959123;28;19937;-61
2024/03/04 05:35:08;;;;;;;;;;;;;;;0.16;92.85;94654.34;4961132;28;19933;-61
2024/03/04 05:37:34;;;;;;;;;;;;;;;-0.19;95.11;94658.28;4963380;28;19926;-61
2024/03/04 05:39:59;;;;;;;;;;;;;;;-0.08;94.52;94660.81;4963104;28;20313;-61
2024/03/04 05:42:24;;;;;;;;;;;;;;;0.34;92.65;94674.59;4959124;28;19937;-61
2024/03/04 05:44:49;;;;;;;;;;;;;;;-0.14;94.41;94670.97;4958616;28;20335;-61
2024/03/04 05:47:15;;;;;;;;;;;;;;;-0.02;94.96;94680.38;4958550;28;20013;-61
2024/03/04 05:49:40;;;;;;;;;;;;;;;-0.12;94.82;94676.91;4959215;28;19972;-61
2024/03/04 05:52:05;;;;;;;;;;;;;;;0.56;91.43;94689.25;4959694;28;19957;-60
2024/03/04 05:54:32;;;;;;;;;;;;;;;0.40;91.31;94692.41;4958749;28;20000;-61
2024/03/04 05:56:57;;;;;;;;;;;;;;;0.37;91.47;94702.34;4957861;28;19932;-61
2024/03/04 05:59:22;;;;;;;;;;;;;;;0.64;90.44;94701.63;4948810;28;20295;-62
2024/03/04 06:01:48;;;;;;;;;;;;;;;0.59;90.13;94707.28;4955646;28;20040;-61
2024/03/04 06:04:13;;;;;;;;;;;;;;;0.86;89.04;94704.94;4958190;28;19981;-60
2024/03/04 06:06:38;;;;;;;;;;;;;;;0.52;89.93;94710.59;4958080;28;20380;-61
2024/03/04 06:09:04;;;;;;;;;;;;;;;0.34;90.42;94706.88;4958097;28;19926;-61
2024/03/04 06:11:30;;;;;;;;;;;;;;;0.36;90.60;94711.97;4957922;28;20165;-61
2024/03/04 06:13:55;;;;;;;;;;;;;;;0.17;92.29;94712.78;4958042;28;19925;-60
2024/03/04 06:16:20;;;;;;;;;;;;;;;0.36;91.06;94714.59;4959320;28;19953;-63
2024/03/04 06:18:46;;;;;;;;;;;;;;;0.37;91.19;94716.22;4958370;28;19926;-62
2024/03/04 06:21:11;;;;;;;;;;;;;;;0.65;89.55;94724.25;4962224;28;19987;-62
2024/03/04 06:23:37;;;;;;;;;;;;;;;0.47;90.15;94729.34;4958387;28;19965;-62
2024/03/04 06:26:08;;;;;;;;;;;;;;;0.24;91.30;94732.19;4957913;28;19926;-62
2024/03/04 06:28:34;;;;;;;;;;;;;;;0.31;91.67;94740.38;4957986;28;19956;-62
2024/03/04 06:31:00;;;;;;;;;;;;;;;0.58;90.00;94744.94;4957671;28;19960;-62
2024/03/04 06:33:25;;;;;;;;;;;;;;;-0.03;92.42;94749.34;4958720;28;20493;-62
2024/03/04 06:35:50;;;;;;;;;;;;;;;0.04;92.95;94747.06;4957545;28;20431;-62
2024/03/04 06:38:15;;;;;;;;;;;;;;;-0.07;93.82;94746.19;4969190;28;19922;-62
2024/03/04 06:40:41;;;;;;;;;;;;;;;0.10;93.43;94746.50;4957361;28;19934;-62
2024/03/04 06:43:06;;;;;;;;;;;;;;;-0.02;92.63;94750.19;4957260;28;19969;-62
2024/03/04 06:45:31;;;;;;;;;;;;;;;-0.23;94.38;94751.09;4957328;28;19930;-62
2024/03/04 06:48:01;;;;;;;;;;;;;;;0.03;93.60;94759.31;4957650;28;19922;-62
2024/03/04 06:50:27;;;;;;;;;;;;;;;0.17;93.04;94757.28;4958299;28;20350;-62
2024/03/04 06:52:52;;;;;;;;;;;;;;;-0.12;93.20;94752.78;4957936;28;20164;-62
2024/03/04 06:55:17;;;;;;;;;;;;;;;-0.32;94.80;94757.94;4957190;28;19926;-62
2024/03/04 06:57:42;;;;;;;;;;;;;;;0.01;94.03;94752.56;4957346;28;19926;-62
2024/03/04 07:00:11;;;;;;;;;;;;;;;0.16;92.22;94748.59;4957427;28;20495;-62
2024/03/04 07:02:37;;;;;;;;;;;;;;;0.25;92.07;94764.47;4957839;28;19926;-62
2024/03/04 07:05:02;;;;;;;;;;;;;;;-0.06;92.70;94766.16;4957874;28;20520;-62
2024/03/04 07:07:27;;;;;;;;;;;;;;;-0.10;93.46;94771.81;4957036;28;20335;-62
2024/03/04 07:09:53;;;;;;;;;;;;;;;-0.56;95.61;94772.16;4956413;28;19937;-62
2024/03/04 07:12:18;;;;;;;;;;;;;;;-0.63;96.96;94776.22;4972161;28;19961;-62
2024/03/04 07:14:43;;;;;;;;;;;;;;;-0.40;96.03;94776.06;4957471;28;19922;-62
2024/03/04 07:17:08;;;;;;;;;;;;;;;-0.51;95.59;94774.38;4957569;28;19929;-62
2024/03/04 07:19:34;;;;;;;;;;;;;;;-0.76;97.11;94786.88;4956876;28;19934;-62
2024/03/04 07:21:59;;;;;;;;;;;;;;;-0.38;95.93;94780.22;4957977;28;19930;-62
2024/03/04 07:24:24;;;;;;;;;;;;;;;-0.40;94.71;94776.06;4949980;28;19934;-62
2024/03/04 07:26:50;;;;;;;;;;;;;;;-0.16;93.71;94780.19;4961648;28;20678;-61
2024/03/04 07:29:15;;;;;;;;;;;;;;;-0.24;93.69;94781.66;4960628;28;19926;-60
2024/03/04 07:31:40;;;;;;;;;;;;;;;-0.27;94.03;94781.09;4960963;28;20028;-61
2024/03/04 07:34:06;;;;;;;;;;;;;;;-0.37;93.54;94788.91;4961567;28;20561;-61
2024/03/04 07:36:31;;;;;;;;;;;;;;;-0.31;93.88;94785.75;4960764;28;19977;-61
2024/03/04 07:38:57;;;;;;;;;;;;;;;-0.36;94.72;94783.53;4958412;28;19929;-62
2024/03/04 07:41:22;;;;;;;;;;;;;;;0.01;93.30;94786.56;4958988;28;19978;-61
2024/03/04 07:43:48;;;;;;;;;;;;;;;-0.16;93.29;94778.41;4960345;28;20818;-61
2024/03/04 07:46:13;;;;;;;;;;;;;;;0.14;91.96;94783.72;4961014;28;19929;-61
2024/03/04 07:48:38;;;;;;;;;;;;;;;-0.25;93.20;94787.84;4953642;28;19922;-61
2024/03/04 07:51:05;;;;;;;;;;;;;;;0.37;91.80;94788.75;4961118;28;20020;-61
2024/03/04 07:53:30;;;;;;;;;;;;;;;0.74;88.81;94790.72;4961063;28;20409;-61
2024/03/04 07:55:55;;;;;;;;;;;;;;;0.73;87.81;94794.31;4960429;28;19930;-61
2024/03/04 07:58:20;;;;;;;;;;;;;;;0.73;87.39;94799.56;4960643;28;20570;-61
2024/03/04 08:00:46;;;;;;;;;;;;;;;1.22;85.25;94796.09;4960142;28;20053;-61
2024/03/04 08:03:11;;;;;;;;;;;;;;;1.64;83.83;94796.75;4960802;28;19926;-61
2024/03/04 08:05:36;;;;;;;;;;;;;;;1.33;83.42;94800.38;4960624;28;19929;-61
2024/03/04 08:08:02;;;;;;;;;;;;;;;1.62;82.87;94800.34;4960130;28;19933;-61
2024/03/04 08:10:27;;;;;;;;;;;;;;;1.14;84.12;94809.91;4948918;28;20509;-61
2024/03/04 08:12:53;;;;;;;;;;;;;;;1.21;82.66;94810.19;4960283;28;20674;-61
2024/03/04 08:15:18;;;;;;;;;;;;;;;1.11;83.30;94808.41;4960081;28;19926;-61
2024/03/04 08:17:43;;;;;;;;;;;;;;;1.33;82.67;94809.06;4960308;28;19929;-62
2024/03/04 08:20:09;;;;;;;;;;;;;;;0.71;84.32;94815.41;4959400;28;19926;-61
2024/03/04 08:22:34;;;;;;;;;;;;;;;0.66;86.59;94822.03;4961065;28;19988;-61
2024/03/04 08:24:59;;;;;;;;;;;;;;;1.29;82.06;94819.97;4960128;28;20291;-61
2024/03/04 08:27:25;;;;;;;;;;;;;;;0.94;85.04;94819.56;4960377;28;20087;-62
2024/03/04 08:29:50;;;;;;;;;;;;;;;1.26;82.56;94822.88;4959458;28;19992;-61
2024/03/04 08:32:15;;;;;;;;;;;;;;;0.71;85.22;94827.66;4958565;28;20311;-61
2024/03/04 08:34:40;;;;;;;;;;;;;;;1.23;84.26;94821.38;4960144;28;19925;-61
2024/03/04 08:37:06;;;;;;;;;;;;;;;1.87;81.14;94819.06;4959547;28;20466;-63
2024/03/04 08:39:31;;;;;;;;;;;;;;;1.73;80.76;94837.88;4959305;28;19933;-63
2024/03/04 08:41:56;;;;;;;;;;;;;;;1.73;80.48;94835.25;4959406;28;19937;-62
2024/03/04 08:44:21;;;;;;;;;;;;;;;1.44;81.46;94849.22;4959277;28;19927;-63
2024/03/04 08:46:46;;;;;;;;;;;;;;;1.64;81.98;94842.19;4959743;28;19995;-63
2024/03/04 08:49:13;;;;;;;;;;;;;;;2.07;80.27;94854.91;4955958;28;20643;-63
2024/03/04 08:51:39;;;;;;;;;;;;;;;2.07;78.61;94850.50;4959240;28;20366;-63
2024/03/04 08:54:04;;;;;;;;;;;;;;;1.81;79.37;94858.19;4959977;28;19922;-63
2024/03/04 08:56:30;;;;;;;;;;;;;;;2.08;78.15;94867.09;4959146;28;20619;-63
2024/03/04 08:58:57;;;;;;;;;;;;;;;1.83;77.96;94871.97;4958936;28;19933;-63
2024/03/04 09:01:24;;;;;;;;;;;;;;;1.25;81.08;94882.34;4959388;28;20539;-63
2024/03/04 09:03:50;;;;;;;;;;;;;;;1.25;81.18;94879.72;4959635;28;19934;-63
2024/03/04 09:06:15;;;;;;;;;;;;;;;1.68;79.30;94884.72;4959609;28;20342;-63
2024/03/04 09:08:41;;;;;;;;;;;;;;;1.53;80.64;94879.88;4954799;28;19927;-63
2024/03/04 09:11:06;;;;;;;;;;;;;;;0.97;82.10;94882.19;4957996;28;20583;-63
2024/03/04 09:13:31;;;;;;;;;;;;;;;0.88;82.63;94886.47;4959476;28;19921;-63
2024/03/04 09:15:57;;;;;;;;;;;;;;;0.98;82.73;94883.84;4959282;28;19926;-63
2024/03/04 09:18:22;;;;;;;;;;;;;;;1.11;82.04;94886.22;4959573;28;19922;-63
2024/03/04 09:20:47;;;;;;;;;;;;;;;1.20;82.21;94885.38;4958659;28;19978;-63
2024/03/04 09:23:14;;;;;;;;;;;;;;;1.15;82.42;94892.00;4958006;28;19945;-62
2024/03/04 09:25:40;;;;;;;;;;;;;;;0.85;83.56;94891.97;4949691;28;19922;-63
2024/03/04 09:28:05;;;;;;;;;;;;;;;1.10;83.06;94895.88;4958706;28;19965;-63
2024/03/04 09:30:30;;;;;;;;;;;;;;;0.55;84.92;94886.66;4957708;28;19918;-63
2024/03/04 09:32:55;;;;;;;;;;;;;;;0.56;86.07;94888.34;4958539;28;19930;-63
2024/03/04 09:35:21;;;;;;;;;;;;;;;0.70;85.94;94883.66;4958979;28;19934;-63
2024/03/04 09:37:46;;;;;;;;;;;;;;;1.00;84.79;94884.56;4959211;28;19976;-63
2024/03/04 09:40:11;;;;;;;;;;;;;;;1.11;83.57;94881.81;4958859;28;19926;-63
2024/03/04 09:42:36;;;;;;;;;;;;;;;1.45;82.26;94888.44;4957062;28;20028;-63
2024/03/04 09:45:02;;;;;;;;;;;;;;;1.37;82.57;94883.06;4971241;28;20649;-63
2024/03/04 09:47:28;;;;;;;;;;;;;;;1.42;82.60;94883.47;4956791;28;19925;-63
2024/03/04 09:49:54;;;;;;;;;;;;;;;1.69;81.32;94883.75;4948996;28;19922;-63
2024/03/04 09:52:19;;;;;;;;;;;;;;;1.47;81.17;94885.69;4958284;28;19948;-62
2024/03/04 09:54:45;;;;;;;;;;;;;;;1.15;82.70;94887.59;4957662;28;20392;-63
2024/03/04 09:57:10;;;;;;;;;;;;;;;1.57;80.71;94885.72;4972056;28;19989;-63
2024/03/04 09:59:35;;;;;;;;;;;;;;;1.78;82.53;94882.06;4957498;28;19969;-63
2024/03/04 10:02:01;;;;;;;;;;;;;;;2.44;79.89;94882.13;4973556;28;19928;-63
2024/03/04 10:04:26;;;;;;;;;;;;;;;2.33;79.46;94885.78;4971457;28;19930;-63
2024/03/04 10:06:52;;;;;;;;;;;;;;;2.89;75.18;94876.09;4954629;28;19922;-63
2024/03/04 10:09:17;;;;;;;;;;;;;;;3.25;73.91;94885.00;4955211;28;20651;-63
2024/03/04 10:11:42;;;;;;;;;;;;;;;3.37;72.36;94888.25;4955652;28;19965;-63
2024/03/04 10:14:08;;;;;;;;;;;;;;;3.98;73.04;94877.06;4957351;28;19922;-63
2024/03/04 10:16:34;;;;;;;;;;;;;;;4.40;72.78;94875.47;4953322;28;20395;-63
2024/03/04 10:19:03;;;;;;;;;;;;;;;3.22;69.92;94874.78;4953665;28;19922;-63
2024/03/04 10:21:28;;;;;;;;;;;;;;;3.80;74.27;94877.91;4957131;28;19934;-63
2024/03/04 10:23:53;;;;;;;;;;;;;;;4.60;70.15;94878.69;4957959;28;19926;-63
2024/03/04 10:26:20;;;;;;;;;;;;;;;3.41;70.75;94881.69;4951895;28;20729;-63
2024/03/04 10:28:45;;;;;;;;;;;;;;;2.99;73.07;94888.38;4957567;28;19926;-63
2024/03/04 10:31:11;;;;;;;;;;;;;;;3.34;73.78;94878.84;4957570;28;19926;-63
2024/03/04 10:33:37;;;;;;;;;;;;;;;3.78;72.19;94883.31;4957642;28;19914;-63
2024/03/04 10:36:18;;;;;;;;;;;;;;;4.31;70.30;94879.88;4957229;28;20384;-63
2024/03/04 10:38:54;;;;;;;;;;;;;;;3.78;70.58;94885.16;4957744;28;19926;-63
2024/03/04 10:41:20;;;;;;;;;;;;;;;4.14;70.57;94885.06;4956860;28;20597;-63
2024/03/04 10:43:45;;;;;;;;;;;;;;;4.58;67.73;94880.66;4957078;28;19934;-63
2024/03/04 10:46:11;;;;;;;;;;;;;;;4.07;67.74;94886.66;4957133;28;19923;-63
2024/03/04 10:48:39;;;;;;;;;;;;;;;3.67;68.02;94884.41;4957196;28;19926;-63
2024/03/04 10:51:05;;;;;;;;;;;;;;;4.51;69.06;94895.44;4972116;28;20737;-63
2024/03/04 10:53:30;;;;;;;;;;;;;;;4.45;66.02;94887.19;4957840;28;19957;-63
2024/03/04 10:55:57;;;;;;;;;;;;;;;4.85;68.49;94902.53;4956513;28;19975;-63
2024/03/04 10:58:22;;;;;;;;;;;;;;;4.82;65.82;94893.13;4971242;28;19929;-62
2024/03/04 11:00:48;;;;;;;;;;;;;;;4.43;67.47;94894.41;4954932;28;19934;-62
2024/03/04 11:03:16;;;;;;;;;;;;;;;3.60;68.82;94888.63;4969155;28;19934;-62
2024/03/04 11:05:43;;;;;;;;;;;;;;;3.59;70.29;94897.50;4972177;28;19981;-62
2024/03/04 11:08:08;;;;;;;;;;;;;;;3.04;72.21;94900.06;4968770;28;20503;-62
2024/03/04 11:10:36;;;;;;;;;;;;;;;3.45;71.03;94898.88;4954375;28;19926;-62
2024/03/04 11:13:04;;;;;;;;;;;;;;;2.98;73.55;94891.97;4971396;28;19933;-62
2024/03/04 11:15:30;;;;;;;;;;;;;;;2.42;75.39;94894.63;4956850;28;19926;-62
2024/03/04 11:17:57;;;;;;;;;;;;;;;2.11;76.96;94890.44;4971694;28;20445;-62
2024/03/04 11:20:22;;;;;;;;;;;;;;;2.96;75.11;94891.31;4956067;28;19930;-62
2024/03/04 11:22:47;;;;;;;;;;;;;;;3.11;73.71;94908.22;4951532;28;19929;-62
2024/03/04 11:25:13;;;;;;;;;;;;;;;3.74;72.99;94910.13;4956285;28;19980;-62
2024/03/04 11:27:38;;;;;;;;;;;;;;;4.06;71.41;94898.19;4972046;28;19961;-62
2024/03/04 11:30:05;;;;;;;;;;;;;;;3.86;70.34;94903.66;4956477;28;19949;-62
2024/03/04 11:32:31;;;;;;;;;;;;;;;3.25;72.02;94913.94;4956595;28;20012;-61
2024/03/04 11:34:57;;;;;;;;;;;;;;;3.00;72.40;94911.06;4956671;28;20454;-62
2024/03/04 11:37:29;;;;;;;;;;;;;;;3.00;73.29;94903.97;4957764;28;20129;-62
2024/03/04 11:39:54;;;;;;;;;;;;;;;3.21;72.30;94905.53;4956276;28;20482;-61
2024/03/04 11:42:32;;;;;;;;;;;;;;;3.20;72.52;94910.94;4956987;28;19936;-61
2024/03/04 11:44:57;;;;;;;;;;;;;;;3.53;72.71;94914.72;4956496;28;19975;-61
2024/03/04 11:47:23;;;;;;;;;;;;;;;3.67;70.65;94913.38;4956674;28;19926;-61
2024/03/04 11:49:48;;;;;;;;;;;;;;;4.48;68.12;94914.22;4966783;28;19926;-61
2024/03/04 11:52:20;;;;;;;;;;;;;;;4.37;67.13;94915.31;4956086;28;19937;-61
2024/03/04 11:54:46;;;;;;;;;;;;;;;3.85;67.52;94923.06;4949362;28;20009;-61
2024/03/04 11:57:11;;;;;;;;;;;;;;;3.99;68.84;94921.69;4955954;28;19960;-62
2024/03/04 11:59:39;;;;;;;;;;;;;;;3.48;68.41;94917.00;4954864;28;20531;-61
2024/03/04 12:02:08;;;;;;;;;;;;;;;3.49;70.30;94915.19;4956881;28;19960;-61
2024/03/04 12:04:34;;;;;;;;;;;;;;;3.97;69.12;94920.16;4957131;28;19926;-61
2024/03/04 12:06:59;;;;;;;;;;;;;;;3.42;70.05;94930.72;4952536;28;19921;-61
2024/03/04 12:09:26;;;;;;;;;;;;;;;3.13;69.78;94927.31;4953131;28;19926;-62
2024/03/04 12:11:51;;;;;;;;;;;;;;;3.44;69.91;94931.41;4956087;28;20425;-62
2024/03/04 12:14:17;;;;;;;;;;;;;;;3.63;69.97;94933.06;4960676;28;19937;-62
2024/03/04 12:16:42;;;;;;;;;;;;;;;4.47;67.47;94937.13;4950093;28;19928;-62
2024/03/04 12:19:07;;;;;;;;;;;;;;;4.32;67.05;94942.97;4958384;28;20444;-62
2024/03/04 12:21:33;;;;;;;;;;;;;;;4.16;67.01;94941.06;4959831;28;20009;-62
2024/03/04 12:23:58;;;;;;;;;;;;;;;4.00;68.00;94946.19;4959585;28;19934;-62
2024/03/04 12:26:23;;;;;;;;;;;;;;;4.68;66.96;94938.53;4960169;28;19922;-61
2024/03/04 12:28:58;;;;;;;;;;;;;;;4.70;66.60;94947.94;4959895;28;19992;-62
2024/03/04 12:31:24;;;;;;;;;;;;;;;4.30;65.95;94952.84;4957291;28;19968;-62
2024/03/04 12:33:49;;;;;;;;;;;;;;;4.28;67.60;94951.31;4974792;28;19965;-61
2024/03/04 12:36:16;;;;;;;;;;;;;;;3.94;67.21;94948.47;4950169;28;19973;-61
2024/03/04 12:38:42;;;;;;;;;;;;;;;3.79;67.86;94948.19;4974643;28;20295;-63
2024/03/04 12:41:16;;;;;;;;;;;;;;;3.91;67.59;94940.88;4958226;28;19933;-63
2024/03/04 12:43:43;;;;;;;;;;;;;;;3.48;69.06;94938.06;4955917;28;19936;-64
2024/03/04 12:46:09;;;;;;;;;;;;;;;3.58;70.53;94937.97;4959399;28;19992;-63